East Bethel, Vermont
Current Conditions -  °F | °C
As of 2:53 AM on Monday 22 Dec 2014 (Local Time) from KLEB Reporting Station
Overcast Overcast  
Wind Chill: 28°   Ceiling: 3700
Heat Index: 28°   Visibility: 8mi
Dew Point: 24°   Wind: 0mph
Humidity: 85%   Direction: NA
Pressure: 30.36"   Gusts: NA
Location:  43.8078°N, 72.6713°W
Report Text: KLEB 220753Z AUTO 00000KT 8SM OVC037 M02/M04 A3036 RMK AO2 SLP290 T10221044
Loading
Personal Weather Stations






























Interactive Weather Map New forecast layout! Learn more

10-Day Weather Forecast

Advertisements
Track Severe Weather on mobile